PILOTS ONLINE: 190    ATC ONLINE: 24

Location

City Twentynine Palms
Country  United States
Latitude 34° 17' 46" N
Longitude 116° 9' 43" W
Elevation 2051 ft
Type Medium Airport

Weather

METAR
2014/07/11 05:56
KNXP 110556Z AUTO 03007KT 10SM CLR 29/08 A2997 RMK AO2 SLP106 T02940078 10378 20289 51020 
TAF
2014/07/11 03:18
TAF TAF KNXP 1103/1203 VRB06KT 9999 FEW150 SCT180 QNH2983INS 
      TEMPO 1103/1104 23015G21KT AUTOMATED SENSOR METWATCH 1103 TIL 1115 T26/1113Z T38/1122Z

Runways

10/28 8015 ft / 150 ft

Outbound flights

Inbound flights


Spotted incorrect airport information? Please login with your VATSIM ID.